sensor_id;sensor_type;location;lat;lon;timestamp;pressure;altitude;pressure_sealevel;temperature;humidity
27334;BME280;14817;57.104;-2.094;2023-03-03T00:00:07;102326.38;;;4.03;100.00
27334;BME280;14817;57.104;-2.094;2023-03-03T00:02:40;102325.66;;;4.00;100.00
27334;BME280;14817;57.104;-2.094;2023-03-03T00:05:07;102319.41;;;4.01;100.00
27334;BME280;14817;57.104;-2.094;2023-03-03T00:07:34;102323.31;;;3.92;100.00
27334;BME280;14817;57.104;-2.094;2023-03-03T00:10:01;102320.84;;;3.87;100.00
27334;BME280;14817;57.104;-2.094;2023-03-03T00:12:29;102325.25;;;3.88;100.00
27334;BME280;14817;57.104;-2.094;2023-03-03T00:14:57;102327.16;;;3.85;100.00
27334;BME280;14817;57.104;-2.094;2023-03-03T00:17:28;102319.16;;;3.86;100.00
27334;BME280;14817;57.104;-2.094;2023-03-03T00:19:56;102320.91;;;3.86;100.00
27334;BME280;14817;57.104;-2.094;2023-03-03T00:28:21;102317.41;;;3.85;100.00
27334;BME280;14817;57.104;-2.094;2023-03-03T00:30:52;102317.53;;;3.82;100.00
27334;BME280;14817;57.104;-2.094;2023-03-03T00:33:33;102321.38;;;3.75;100.00
27334;BME280;14817;57.104;-2.094;2023-03-03T00:38:48;102320.66;;;3.72;100.00
27334;BME280;14817;57.104;-2.094;2023-03-03T00:41:22;102328.59;;;3.72;100.00
27334;BME280;14817;57.104;-2.094;2023-03-03T00:43:50;102323.22;;;3.73;100.00
27334;BME280;14817;57.104;-2.094;2023-03-03T00:46:24;102323.28;;;3.72;100.00
27334;BME280;14817;57.104;-2.094;2023-03-03T00:48:51;102324.34;;;3.67;100.00
27334;BME280;14817;57.104;-2.094;2023-03-03T00:51:29;102326.25;;;3.64;100.00
27334;BME280;14817;57.104;-2.094;2023-03-03T00:53:57;102323.59;;;3.64;100.00
27334;BME280;14817;57.104;-2.094;2023-03-03T00:56:25;102328.25;;;3.59;100.00
27334;BME280;14817;57.104;-2.094;2023-03-03T00:58:56;102328.53;;;3.51;100.00
27334;BME280;14817;57.104;-2.094;2023-03-03T01:01:25;102332.28;;;3.45;100.00
27334;BME280;14817;57.104;-2.094;2023-03-03T01:03:54;102327.25;;;3.39;100.00
27334;BME280;14817;57.104;-2.094;2023-03-03T01:06:25;102325.38;;;3.41;100.00
27334;BME280;14817;57.104;-2.094;2023-03-03T01:08:52;102328.03;;;3.41;100.00
27334;BME280;14817;57.104;-2.094;2023-03-03T01:11:25;102329.03;;;3.39;100.00
27334;BME280;14817;57.104;-2.094;2023-03-03T01:13:53;102329.16;;;3.36;100.00
27334;BME280;14817;57.104;-2.094;2023-03-03T01:16:25;102322.13;;;3.35;100.00
27334;BME280;14817;57.104;-2.094;2023-03-03T01:18:55;102325.66;;;3.35;100.00
27334;BME280;14817;57.104;-2.094;2023-03-03T01:21:22;102324.66;;;3.38;100.00
27334;BME280;14817;57.104;-2.094;2023-03-03T01:23:53;102322.75;;;3.41;100.00
27334;BME280;14817;57.104;-2.094;2023-03-03T01:26:20;102318.50;;;3.37;100.00
27334;BME280;14817;57.104;-2.094;2023-03-03T01:28:48;102330.78;;;3.40;100.00
27334;BME280;14817;57.104;-2.094;2023-03-03T01:31:19;102323.63;;;3.42;100.00
27334;BME280;14817;57.104;-2.094;2023-03-03T01:33:48;102326.09;;;3.46;100.00
27334;BME280;14817;57.104;-2.094;2023-03-03T01:36:14;102326.13;;;3.45;100.00
27334;BME280;14817;57.104;-2.094;2023-03-03T01:38:43;102323.50;;;3.45;100.00
27334;BME280;14817;57.104;-2.094;2023-03-03T01:41:11;102319.84;;;3.47;100.00
27334;BME280;14817;57.104;-2.094;2023-03-03T01:43:43;102316.47;;;3.44;100.00
27334;BME280;14817;57.104;-2.094;2023-03-03T01:48:56;102320.16;;;3.40;100.00
27334;BME280;14817;57.104;-2.094;2023-03-03T01:51:31;102320.16;;;3.40;100.00
27334;BME280;14817;57.104;-2.094;2023-03-03T01:54:08;102319.19;;;3.42;100.00
27334;BME280;14817;57.104;-2.094;2023-03-03T01:56:40;102311.19;;;3.44;100.00
27334;BME280;14817;57.104;-2.094;2023-03-03T01:59:13;102310.19;;;3.46;100.00
27334;BME280;14817;57.104;-2.094;2023-03-03T02:01:41;102321.84;;;3.42;100.00
27334;BME280;14817;57.104;-2.094;2023-03-03T02:04:12;102323.44;;;3.46;100.00
27334;BME280;14817;57.104;-2.094;2023-03-03T02:06:42;102317.34;;;3.44;100.00
27334;BME280;14817;57.104;-2.094;2023-03-03T02:09:16;102312.84;;;3.46;100.00
27334;BME280;14817;57.104;-2.094;2023-03-03T02:11:50;102311.09;;;3.45;100.00
27334;BME280;14817;57.104;-2.094;2023-03-03T02:14:18;102309.19;;;3.49;100.00
27334;BME280;14817;57.104;-2.094;2023-03-03T02:16:44;102314.31;;;3.54;100.00
27334;BME280;14817;57.104;-2.094;2023-03-03T02:19:27;102311.66;;;3.54;100.00
27334;BME280;14817;57.104;-2.094;2023-03-03T02:21:58;102309.00;;;3.54;100.00
27334;BME280;14817;57.104;-2.094;2023-03-03T02:24:39;102306.16;;;3.58;100.00
27334;BME280;14817;57.104;-2.094;2023-03-03T02:27:08;102300.81;;;3.60;100.00
27334;BME280;14817;57.104;-2.094;2023-03-03T02:29:36;102306.31;;;3.55;100.00
27334;BME280;14817;57.104;-2.094;2023-03-03T02:32:04;102305.63;;;3.50;100.00
27334;BME280;14817;57.104;-2.094;2023-03-03T02:34:49;102306.25;;;3.57;100.00
27334;BME280;14817;57.104;-2.094;2023-03-03T02:37:17;102307.75;;;3.62;100.00
27334;BME280;14817;57.104;-2.094;2023-03-03T02:39:44;102304.50;;;3.56;100.00
27334;BME280;14817;57.104;-2.094;2023-03-03T02:42:20;102302.72;;;3.56;100.00
27334;BME280;14817;57.104;-2.094;2023-03-03T02:44:52;102299.97;;;3.59;100.00
27334;BME280;14817;57.104;-2.094;2023-03-03T02:47:19;102300.25;;;3.52;100.00
27334;BME280;14817;57.104;-2.094;2023-03-03T02:49:46;102294.25;;;3.48;100.00
27334;BME280;14817;57.104;-2.094;2023-03-03T02:52:13;102297.84;;;3.45;100.00
27334;BME280;14817;57.104;-2.094;2023-03-03T02:54:43;102302.28;;;3.45;100.00
27334;BME280;14817;57.104;-2.094;2023-03-03T02:57:11;102299.66;;;3.45;100.00
27334;BME280;14817;57.104;-2.094;2023-03-03T02:59:37;102299.84;;;3.40;100.00
27334;BME280;14817;57.104;-2.094;2023-03-03T03:02:08;102288.16;;;3.46;100.00
27334;BME280;14817;57.104;-2.094;2023-03-03T03:04:36;102286.66;;;3.39;100.00
27334;BME280;14817;57.104;-2.094;2023-03-03T03:07:03;102286.47;;;3.43;100.00
27334;BME280;14817;57.104;-2.094;2023-03-03T03:09:32;102291.91;;;3.40;100.00
27334;BME280;14817;57.104;-2.094;2023-03-03T03:11:59;102288.25;;;3.43;100.00
27334;BME280;14817;57.104;-2.094;2023-03-03T03:14:30;102297.19;;;3.40;100.00
27334;BME280;14817;57.104;-2.094;2023-03-03T03:16:57;102289.25;;;3.40;100.00
27334;BME280;14817;57.104;-2.094;2023-03-03T03:19:26;102290.19;;;3.39;100.00
27334;BME280;14817;57.104;-2.094;2023-03-03T03:21:55;102287.53;;;3.39;100.00
27334;BME280;14817;57.104;-2.094;2023-03-03T03:24:22;102288.41;;;3.40;100.00
27334;BME280;14817;57.104;-2.094;2023-03-03T03:26:56;102297.19;;;3.40;100.00
27334;BME280;14817;57.104;-2.094;2023-03-03T03:29:24;102290.91;;;3.43;100.00
27334;BME280;14817;57.104;-2.094;2023-03-03T03:31:51;102293.09;;;3.33;100.00
27334;BME280;14817;57.104;-2.094;2023-03-03T03:34:18;102298.25;;;3.36;100.00
27334;BME280;14817;57.104;-2.094;2023-03-03T03:36:47;102292.34;;;3.30;100.00
27334;BME280;14817;57.104;-2.094;2023-03-03T03:39:15;102296.59;;;3.34;100.00
27334;BME280;14817;57.104;-2.094;2023-03-03T03:41:45;102297.34;;;3.37;100.00
27334;BME280;14817;57.104;-2.094;2023-03-03T03:44:12;102293.50;;;3.44;100.00
27334;BME280;14817;57.104;-2.094;2023-03-03T03:46:39;102293.56;;;3.43;100.00
27334;BME280;14817;57.104;-2.094;2023-03-03T03:49:06;102296.16;;;3.44;100.00
27334;BME280;14817;57.104;-2.094;2023-03-03T03:51:33;102293.56;;;3.43;100.00
27334;BME280;14817;57.104;-2.094;2023-03-03T03:54:01;102299.66;;;3.45;100.00
27334;BME280;14817;57.104;-2.094;2023-03-03T03:56:29;102301.56;;;3.41;100.00
27334;BME280;14817;57.104;-2.094;2023-03-03T03:58:58;102306.00;;;3.41;100.00
27334;BME280;14817;57.104;-2.094;2023-03-03T04:01:26;102298.78;;;3.44;100.00
27334;BME280;14817;57.104;-2.094;2023-03-03T04:03:55;102292.41;;;3.50;100.00
27334;BME280;14817;57.104;-2.094;2023-03-03T04:06:23;102294.16;;;3.50;100.00
27334;BME280;14817;57.104;-2.094;2023-03-03T04:08:51;102294.25;;;3.48;100.00
27334;BME280;14817;57.104;-2.094;2023-03-03T04:11:20;102295.94;;;3.49;100.00
27334;BME280;14817;57.104;-2.094;2023-03-03T04:13:47;102293.00;;;3.57;100.00
27334;BME280;14817;57.104;-2.094;2023-03-03T04:16:14;102292.19;;;3.55;100.00
27334;BME280;14817;57.104;-2.094;2023-03-03T04:18:42;102295.66;;;3.57;100.00
27334;BME280;14817;57.104;-2.094;2023-03-03T04:21:14;102301.66;;;3.60;100.00
27334;BME280;14817;57.104;-2.094;2023-03-03T04:23:43;102297.16;;;3.62;100.00
27334;BME280;14817;57.104;-2.094;2023-03-03T04:26:10;102294.22;;;3.70;100.00
27334;BME280;14817;57.104;-2.094;2023-03-03T04:28:37;102294.25;;;3.68;100.00
27334;BME280;14817;57.104;-2.094;2023-03-03T04:31:05;102296.81;;;3.72;100.00
27334;BME280;14817;57.104;-2.094;2023-03-03T04:33:32;102294.22;;;3.70;100.00
27334;BME280;14817;57.104;-2.094;2023-03-03T04:36:00;102287.00;;;3.74;100.00
27334;BME280;14817;57.104;-2.094;2023-03-03T04:38:27;102297.50;;;3.75;100.00
27334;BME280;14817;57.104;-2.094;2023-03-03T04:40:55;102290.44;;;3.76;100.00
27334;BME280;14817;57.104;-2.094;2023-03-03T04:43:24;102298.06;;;3.83;100.00
27334;BME280;14817;57.104;-2.094;2023-03-03T04:45:52;102296.34;;;3.82;100.00
27334;BME280;14817;57.104;-2.094;2023-03-03T04:48:20;102299.78;;;3.84;100.00
27334;BME280;14817;57.104;-2.094;2023-03-03T04:50:47;102295.41;;;3.83;100.00
27334;BME280;14817;57.104;-2.094;2023-03-03T04:53:13;102290.31;;;3.79;100.00
27334;BME280;14817;57.104;-2.094;2023-03-03T04:55:41;102293.69;;;3.82;100.00
27334;BME280;14817;57.104;-2.094;2023-03-03T04:58:08;102297.06;;;3.86;100.00
27334;BME280;14817;57.104;-2.094;2023-03-03T05:00:37;102294.25;;;3.91;100.00
27334;BME280;14817;57.104;-2.094;2023-03-03T05:03:09;102296.47;;;3.79;100.00
27334;BME280;14817;57.104;-2.094;2023-03-03T05:05:39;102298.13;;;3.82;100.00
27334;BME280;14817;57.104;-2.094;2023-03-03T05:08:06;102297.41;;;3.78;100.00
27334;BME280;14817;57.104;-2.094;2023-03-03T05:10:33;102296.47;;;3.79;100.00
27334;BME280;14817;57.104;-2.094;2023-03-03T05:13:00;102298.19;;;3.80;100.00
27334;BME280;14817;57.104;-2.094;2023-03-03T05:15:27;102293.91;;;3.78;100.00
27334;BME280;14817;57.104;-2.094;2023-03-03T05:17:54;102298.25;;;3.79;100.00
27334;BME280;14817;57.104;-2.094;2023-03-03T05:20:23;102299.09;;;3.79;100.00
27334;BME280;14817;57.104;-2.094;2023-03-03T05:22:50;102300.06;;;3.78;100.00
27334;BME280;14817;57.104;-2.094;2023-03-03T05:25:17;102308.66;;;3.83;100.00
27334;BME280;14817;57.104;-2.094;2023-03-03T05:27:44;102303.34;;;3.83;100.00
27334;BME280;14817;57.104;-2.094;2023-03-03T05:30:11;102297.16;;;3.84;100.00
27334;BME280;14817;57.104;-2.094;2023-03-03T05:32:38;102302.50;;;3.83;100.00
27334;BME280;14817;57.104;-2.094;2023-03-03T05:35:05;102296.34;;;3.82;100.00
27334;BME280;14817;57.104;-2.094;2023-03-03T05:37:32;102292.66;;;3.86;100.00
27334;BME280;14817;57.104;-2.094;2023-03-03T05:39:59;102300.84;;;3.80;100.00
27334;BME280;14817;57.104;-2.094;2023-03-03T05:42:26;102299.91;;;3.81;100.00
27334;BME280;14817;57.104;-2.094;2023-03-03T05:44:53;102296.66;;;3.75;100.00
27334;BME280;14817;57.104;-2.094;2023-03-03T05:47:20;102305.59;;;3.72;100.00
27334;BME280;14817;57.104;-2.094;2023-03-03T05:49:46;102298.47;;;3.74;100.00
27334;BME280;14817;57.104;-2.094;2023-03-03T05:52:14;102296.72;;;3.73;100.00
27334;BME280;14817;57.104;-2.094;2023-03-03T05:54:40;102300.06;;;3.78;100.00
27334;BME280;14817;57.104;-2.094;2023-03-03T05:57:07;102299.09;;;3.79;100.00
27334;BME280;14817;57.104;-2.094;2023-03-03T05:59:34;102305.22;;;3.81;100.00
27334;BME280;14817;57.104;-2.094;2023-03-03T06:02:00;102307.84;;;3.81;100.00
27334;BME280;14817;57.104;-2.094;2023-03-03T06:04:27;102297.34;;;3.80;100.00
27334;BME280;14817;57.104;-2.094;2023-03-03T06:06:54;102307.81;;;3.83;100.00
27334;BME280;14817;57.104;-2.094;2023-03-03T06:09:21;102308.66;;;3.83;100.00
27334;BME280;14817;57.104;-2.094;2023-03-03T06:11:48;102307.06;;;3.79;100.00
27334;BME280;14817;57.104;-2.094;2023-03-03T06:14:14;102300.06;;;3.78;100.00
27334;BME280;14817;57.104;-2.094;2023-03-03T06:16:41;102297.34;;;3.80;100.00
27334;BME280;14817;57.104;-2.094;2023-03-03T06:19:08;102308.59;;;3.85;100.00
27334;BME280;14817;57.104;-2.094;2023-03-03T06:21:35;102299.78;;;3.84;100.00
27334;BME280;14817;57.104;-2.094;2023-03-03T06:24:02;102305.22;;;3.81;100.00
27334;BME280;14817;57.104;-2.094;2023-03-03T06:26:30;102296.22;;;3.85;100.00
27334;BME280;14817;57.104;-2.094;2023-03-03T06:28:57;102300.66;;;3.85;100.00
27334;BME280;14817;57.104;-2.094;2023-03-03T06:31:25;102296.25;;;3.84;100.00
27334;BME280;14817;57.104;-2.094;2023-03-03T06:33:52;102298.59;;;3.92;100.00
27334;BME280;14817;57.104;-2.094;2023-03-03T06:36:20;102302.50;;;3.83;100.00
27334;BME280;14817;57.104;-2.094;2023-03-03T06:38:46;102304.34;;;3.81;100.00
27334;BME280;14817;57.104;-2.094;2023-03-03T06:41:13;102314.69;;;3.87;100.00
27334;BME280;14817;57.104;-2.094;2023-03-03T06:43:40;102309.94;;;3.95;100.00
27334;BME280;14817;57.104;-2.094;2023-03-03T06:46:07;102304.56;;;3.97;100.00
27334;BME280;14817;57.104;-2.094;2023-03-03T06:48:33;102311.84;;;3.92;100.00
27334;BME280;14817;57.104;-2.094;2023-03-03T06:51:02;102311.09;;;3.88;100.00
27334;BME280;14817;57.104;-2.094;2023-03-03T06:53:31;102303.94;;;3.90;100.00
27334;BME280;14817;57.104;-2.094;2023-03-03T06:55:58;102313.69;;;3.89;100.00
27334;BME280;14817;57.104;-2.094;2023-03-03T06:58:27;102317.00;;;3.95;100.00
27334;BME280;14817;57.104;-2.094;2023-03-03T07:00:59;102320.34;;;4.00;100.00
27334;BME280;14817;57.104;-2.094;2023-03-03T07:03:32;102320.19;;;4.03;100.00
27334;BME280;14817;57.104;-2.094;2023-03-03T07:06:00;102328.41;;;3.97;100.00
27334;BME280;14817;57.104;-2.094;2023-03-03T07:08:30;102327.50;;;3.98;100.00
27334;BME280;14817;57.104;-2.094;2023-03-03T07:11:01;102330.19;;;3.96;100.00
27334;BME280;14817;57.104;-2.094;2023-03-03T07:13:32;102330.94;;;4.00;100.00
27334;BME280;14817;57.104;-2.094;2023-03-03T07:16:02;102330.00;;;4.01;100.00
27334;BME280;14817;57.104;-2.094;2023-03-03T07:18:51;102325.66;;;4.00;100.00
27334;BME280;14817;57.104;-2.094;2023-03-03T07:23:48;102335.19;;;4.04;100.00
27334;BME280;14817;57.104;-2.094;2023-03-03T07:26:26;102331.28;;;4.13;100.00
27334;BME280;14817;57.104;-2.094;2023-03-03T07:29:03;102341.84;;;4.14;100.00
27334;BME280;14817;57.104;-2.094;2023-03-03T07:31:45;102341.94;;;4.11;100.00
27334;BME280;14817;57.104;-2.094;2023-03-03T07:34:20;102339.28;;;4.11;100.00
27334;BME280;14817;57.104;-2.094;2023-03-03T07:36:54;102335.72;;;4.12;100.00
27334;BME280;14817;57.104;-2.094;2023-03-03T07:39:30;102336.63;;;4.11;100.00
27334;BME280;14817;57.104;-2.094;2023-03-03T07:42:38;102337.59;;;4.10;100.00
27334;BME280;14817;57.104;-2.094;2023-03-03T07:45:22;102344.03;;;4.25;100.00
27334;BME280;14817;57.104;-2.094;2023-03-03T07:47:50;102345.78;;;4.24;100.00
27334;BME280;14817;57.104;-2.094;2023-03-03T07:50:19;102341.38;;;4.25;100.00
27334;BME280;14817;57.104;-2.094;2023-03-03T07:55:40;102348.06;;;4.34;100.00
27334;BME280;14817;57.104;-2.094;2023-03-03T07:58:19;102341.97;;;4.32;100.00
27334;BME280;14817;57.104;-2.094;2023-03-03T08:03:46;102345.41;;;4.34;100.00
27334;BME280;14817;57.104;-2.094;2023-03-03T08:06:40;102353.47;;;4.30;100.00
27334;BME280;14817;57.104;-2.094;2023-03-03T08:11:48;102352.34;;;4.36;100.00
27334;BME280;14817;57.104;-2.094;2023-03-03T08:14:27;102356.00;;;4.34;100.00
27334;BME280;14817;57.104;-2.094;2023-03-03T08:16:56;102351.34;;;4.39;100.00
27334;BME280;14817;57.104;-2.094;2023-03-03T08:19:29;102357.72;;;4.35;100.00
27334;BME280;14817;57.104;-2.094;2023-03-03T08:22:00;102356.88;;;4.34;100.00
27334;BME280;14817;57.104;-2.094;2023-03-03T08:24:28;102354.22;;;4.34;100.00
27334;BME280;14817;57.104;-2.094;2023-03-03T08:26:55;102356.41;;;4.45;100.00
27334;BME280;14817;57.104;-2.094;2023-03-03T08:29:22;102358.91;;;4.48;100.00
27334;BME280;14817;57.104;-2.094;2023-03-03T08:31:49;102363.03;;;4.55;100.00
27334;BME280;14817;57.104;-2.094;2023-03-03T08:34:16;102363.03;;;4.55;100.00
27334;BME280;14817;57.104;-2.094;2023-03-03T08:36:42;102365.69;;;4.55;100.00
27334;BME280;14817;57.104;-2.094;2023-03-03T08:39:09;102362.41;;;4.69;100.00
27334;BME280;14817;57.104;-2.094;2023-03-03T08:41:36;102367.69;;;4.69;100.00
27334;BME280;14817;57.104;-2.094;2023-03-03T08:44:04;102371.16;;;4.71;100.00
27334;BME280;14817;57.104;-2.094;2023-03-03T08:46:31;102368.91;;;4.62;100.00
27334;BME280;14817;57.104;-2.094;2023-03-03T08:49:00;102373.00;;;4.69;100.00
27334;BME280;14817;57.104;-2.094;2023-03-03T08:51:27;102363.59;;;4.82;100.00
27334;BME280;14817;57.104;-2.094;2023-03-03T08:53:54;102370.28;;;4.91;100.00
27334;BME280;14817;57.104;-2.094;2023-03-03T08:56:21;102365.72;;;4.74;100.00
27334;BME280;14817;57.104;-2.094;2023-03-03T08:58:48;102371.03;;;4.74;100.00
27334;BME280;14817;57.104;-2.094;2023-03-03T09:01:28;102377.03;;;4.78;100.00
27334;BME280;14817;57.104;-2.094;2023-03-03T09:03:55;102367.91;;;4.85;100.00
27334;BME280;14817;57.104;-2.094;2023-03-03T09:06:21;102373.78;;;4.91;100.00
27334;BME280;14817;57.104;-2.094;2023-03-03T09:08:48;102373.41;;;4.99;100.00
27334;BME280;14817;57.104;-2.094;2023-03-03T09:11:23;102370.69;;;5.01;100.00
27334;BME280;14817;57.104;-2.094;2023-03-03T09:14:06;102370.63;;;5.02;100.00
27334;BME280;14817;57.104;-2.094;2023-03-03T09:16:42;102375.59;;;5.10;100.00
27334;BME280;14817;57.104;-2.094;2023-03-03T09:21:47;102371.50;;;5.22;100.00
27334;BME280;14817;57.104;-2.094;2023-03-03T09:24:36;102382.84;;;5.25;100.00
27334;BME280;14817;57.104;-2.094;2023-03-03T09:27:13;102383.06;;;5.02;100.00
27334;BME280;14817;57.104;-2.094;2023-03-03T09:29:43;102387.63;;;4.98;100.00
27334;BME280;14817;57.104;-2.094;2023-03-03T09:34:41;102391.03;;;5.02;100.00
27334;BME280;14817;57.104;-2.094;2023-03-03T09:39:55;102394.03;;;5.13;100.00
27334;BME280;14817;57.104;-2.094;2023-03-03T09:45:39;102387.88;;;5.13;100.00
27334;BME280;14817;57.104;-2.094;2023-03-03T09:48:16;102394.88;;;5.14;100.00
27334;BME280;14817;57.104;-2.094;2023-03-03T09:56:20;102398.56;;;5.11;100.00
27334;BME280;14817;57.104;-2.094;2023-03-03T10:01:49;102400.13;;;4.96;100.00
27334;BME280;14817;57.104;-2.094;2023-03-03T10:10:20;102395.75;;;5.14;100.00
27334;BME280;14817;57.104;-2.094;2023-03-03T10:19:08;102410.81;;;5.14;100.00
27334;BME280;14817;57.104;-2.094;2023-03-03T10:21:44;102400.41;;;5.09;100.00
27334;BME280;14817;57.104;-2.094;2023-03-03T10:24:21;102400.25;;;5.12;100.00
27334;BME280;14817;57.104;-2.094;2023-03-03T10:27:15;102398.28;;;5.36;100.00
27334;BME280;14817;57.104;-2.094;2023-03-03T10:35:27;102390.44;;;5.52;100.00
27334;BME280;14817;57.104;-2.094;2023-03-03T10:41:07;102394.69;;;5.73;100.00
27334;BME280;14817;57.104;-2.094;2023-03-03T10:49:10;102391.41;;;5.68;100.00
27334;BME280;14817;57.104;-2.094;2023-03-03T10:52:35;102390.91;;;5.79;100.00
27334;BME280;14817;57.104;-2.094;2023-03-03T10:55:05;102387.41;;;5.60;100.00
27334;BME280;14817;57.104;-2.094;2023-03-03T10:57:49;102395.75;;;5.52;100.00
27334;BME280;14817;57.104;-2.094;2023-03-03T11:00:41;102397.88;;;5.63;100.00
27334;BME280;14817;57.104;-2.094;2023-03-03T11:05:59;102391.69;;;5.81;100.00
27334;BME280;14817;57.104;-2.094;2023-03-03T11:09:01;102397.56;;;5.88;100.00
27334;BME280;14817;57.104;-2.094;2023-03-03T11:12:01;102397.09;;;5.61;100.00
27334;BME280;14817;57.104;-2.094;2023-03-03T11:14:38;102387.97;;;5.66;100.00
27334;BME280;14817;57.104;-2.094;2023-03-03T11:17:47;102391.69;;;5.81;100.00
27334;BME280;14817;57.104;-2.094;2023-03-03T11:20:35;102390.91;;;5.79;100.00
27334;BME280;14817;57.104;-2.094;2023-03-03T11:34:07;102379.78;;;5.88;100.00
27334;BME280;14817;57.104;-2.094;2023-03-03T11:39:13;102368.81;;;5.96;100.00
27334;BME280;14817;57.104;-2.094;2023-03-03T11:44:28;102373.56;;;6.59;100.00
27334;BME280;14817;57.104;-2.094;2023-03-03T11:49:39;102367.72;;;6.18;100.00
27334;BME280;14817;57.104;-2.094;2023-03-03T11:58:11;102378.66;;;6.46;100.00
27334;BME280;14817;57.104;-2.094;2023-03-03T12:12:14;102367.63;;;6.54;100.00
27334;BME280;14817;57.104;-2.094;2023-03-03T12:14:48;102364.56;;;6.44;100.00
27334;BME280;14817;57.104;-2.094;2023-03-03T12:26:13;102359.53;;;6.89;100.00
27334;BME280;14817;57.104;-2.094;2023-03-03T12:29:03;102354.53;;;6.83;100.00
27334;BME280;14817;57.104;-2.094;2023-03-03T12:31:51;102353.63;;;6.84;100.00
27334;BME280;14817;57.104;-2.094;2023-03-03T12:34:26;102351.59;;;6.71;100.00
27334;BME280;14817;57.104;-2.094;2023-03-03T12:48:26;102332.00;;;6.57;100.00
27334;BME280;14817;57.104;-2.094;2023-03-03T12:57:10;102340.63;;;6.44;100.00
27334;BME280;14817;57.104;-2.094;2023-03-03T13:02:59;102322.66;;;6.65;100.00
27334;BME280;14817;57.104;-2.094;2023-03-03T13:05:43;102323.03;;;6.91;100.00
27334;BME280;14817;57.104;-2.094;2023-03-03T13:11:30;102326.41;;;6.61;100.00
27334;BME280;14817;57.104;-2.094;2023-03-03T13:14:21;102325.16;;;6.68;100.00
27334;BME280;14817;57.104;-2.094;2023-03-03T13:17:04;102317.75;;;6.58;100.00
27334;BME280;14817;57.104;-2.094;2023-03-03T13:19:43;102316.13;;;6.55;100.00
27334;BME280;14817;57.104;-2.094;2023-03-03T13:22:31;102311.06;;;6.66;100.00
27334;BME280;14817;57.104;-2.094;2023-03-03T13:27:44;102309.25;;;6.67;100.00
27334;BME280;14817;57.104;-2.094;2023-03-03T13:30:21;102310.03;;;6.69;100.00
27334;BME280;14817;57.104;-2.094;2023-03-03T13:32:58;102316.81;;;6.59;100.00
27334;BME280;14817;57.104;-2.094;2023-03-03T13:35:50;102306.22;;;6.57;100.00
27334;BME280;14817;57.104;-2.094;2023-03-03T13:38:23;102307.31;;;6.70;100.00
27334;BME280;14817;57.104;-2.094;2023-03-03T13:44:03;102292.56;;;6.81;100.00
27334;BME280;14817;57.104;-2.094;2023-03-03T13:49:30;102293.88;;;6.72;100.00
27334;BME280;14817;57.104;-2.094;2023-03-03T13:52:18;102285.41;;;6.97;100.00
27334;BME280;14817;57.104;-2.094;2023-03-03T13:55:12;102291.84;;;6.77;100.00
27334;BME280;14817;57.104;-2.094;2023-03-03T14:14:46;102277.03;;;6.56;100.00
27334;BME280;14817;57.104;-2.094;2023-03-03T14:20:02;102276.34;;;6.52;100.00
27334;BME280;14817;57.104;-2.094;2023-03-03T14:22:42;102263.63;;;6.57;100.00
27334;BME280;14817;57.104;-2.094;2023-03-03T14:25:13;102267.75;;;6.47;100.00
27334;BME280;14817;57.104;-2.094;2023-03-03T14:27:59;102256.94;;;6.50;100.00
27334;BME280;14817;57.104;-2.094;2023-03-03T14:30:37;102263.13;;;6.50;100.00
27334;BME280;14817;57.104;-2.094;2023-03-03T14:40:36;102265.78;;;6.17;100.00
27334;BME280;14817;57.104;-2.094;2023-03-03T14:43:19;102263.25;;;6.31;100.00
27334;BME280;14817;57.104;-2.094;2023-03-03T14:45:47;102261.94;;;6.23;100.00
27334;BME280;14817;57.104;-2.094;2023-03-03T14:50:48;102260.16;;;6.23;100.00
27334;BME280;14817;57.104;-2.094;2023-03-03T14:53:20;102264.00;;;6.33;100.00
27334;BME280;14817;57.104;-2.094;2023-03-03T14:55:48;102265.00;;;6.48;100.00
27334;BME280;14817;57.104;-2.094;2023-03-03T14:58:37;102258.88;;;6.30;100.00
27334;BME280;14817;57.104;-2.094;2023-03-03T15:01:15;102252.88;;;6.09;100.00
27334;BME280;14817;57.104;-2.094;2023-03-03T15:03:48;102253.84;;;6.08;100.00
27334;BME280;14817;57.104;-2.094;2023-03-03T15:06:45;102244.41;;;6.19;100.00
27334;BME280;14817;57.104;-2.094;2023-03-03T15:11:56;102253.94;;;6.23;100.00
27334;BME280;14817;57.104;-2.094;2023-03-03T15:14:37;102247.28;;;6.31;100.00
27334;BME280;14817;57.104;-2.094;2023-03-03T15:17:18;102253.41;;;6.16;100.00
27334;BME280;14817;57.104;-2.094;2023-03-03T15:25:03;102249.97;;;6.14;100.00
27334;BME280;14817;57.104;-2.094;2023-03-03T15:27:40;102244.97;;;6.08;100.00
27334;BME280;14817;57.104;-2.094;2023-03-03T15:33:04;102241.53;;;6.06;100.00
27334;BME280;14817;57.104;-2.094;2023-03-03T15:38:24;102242.78;;;5.81;100.00
27334;BME280;14817;57.104;-2.094;2023-03-03T16:04:32;102250.16;;;5.76;100.00
27334;BME280;14817;57.104;-2.094;2023-03-03T16:15:01;102248.34;;;5.59;100.00
27334;BME280;14817;57.104;-2.094;2023-03-03T16:17:42;102244.97;;;5.73;100.00
27334;BME280;14817;57.104;-2.094;2023-03-03T16:20:21;102242.78;;;5.81;100.00
27334;BME280;14817;57.104;-2.094;2023-03-03T16:23:05;102242.16;;;5.93;100.00
27334;BME280;14817;57.104;-2.094;2023-03-03T16:31:04;102244.97;;;5.73;100.00
27334;BME280;14817;57.104;-2.094;2023-03-03T16:33:43;102248.72;;;5.69;100.00
27334;BME280;14817;57.104;-2.094;2023-03-03T16:36:56;102250.78;;;5.81;100.00
27334;BME280;14817;57.104;-2.094;2023-03-03T16:42:30;102242.81;;;5.64;100.00
27334;BME280;14817;57.104;-2.094;2023-03-03T16:47:58;102243.91;;;5.60;100.00
27334;BME280;14817;57.104;-2.094;2023-03-03T16:50:52;102242.81;;;5.64;100.00
27334;BME280;14817;57.104;-2.094;2023-03-03T17:06:56;102244.03;;;5.57;100.00
27334;BME280;14817;57.104;-2.094;2023-03-03T17:09:56;102242.63;;;5.49;100.00
27334;BME280;14817;57.104;-2.094;2023-03-03T17:12:41;102248.97;;;5.47;100.00
27334;BME280;14817;57.104;-2.094;2023-03-03T17:20:50;102257.31;;;5.39;100.00